Time;durP1;ratioP1;P1;durP2;ratioP2;P2;SDS_P1;SDS_P2;PMS_P1;PMS_P2;Temp;Humidity;BMP_temperature;BMP_pressure;BME280_temperature;BME280_humidity;BME280_pressure;Samples;Min_cycle;Max_cycle;Signal;HPM_P1;HPM_P2
2021/10/08 00:00:20;;;;;;;4.60;4.20;;;;;;;;;;4974805;28;20426;-72
2021/10/08 00:02:46;;;;;;;7.00;4.60;;;;;;;;;;4974886;28;20435;-71
2021/10/08 00:05:12;;;;;;;4.87;3.73;;;;;;;;;;4974792;28;20528;-72
2021/10/08 00:07:38;;;;;;;4.73;4.30;;;;;;;;;;4974575;28;20470;-72
2021/10/08 00:10:05;;;;;;;6.00;4.03;;;;;;;;;;4974947;28;20446;-71
2021/10/08 00:12:32;;;;;;;6.90;4.77;;;;;;;;;;4974457;28;20430;-71
2021/10/08 00:14:58;;;;;;;4.77;4.00;;;;;;;;;;4974686;28;20749;-72
2021/10/08 00:17:24;;;;;;;4.90;3.97;;;;;;;;;;4974460;28;20414;-71
2021/10/08 00:19:50;;;;;;;4.80;4.30;;;;;;;;;;4974448;28;20422;-71
2021/10/08 00:22:16;;;;;;;4.50;4.10;;;;;;;;;;4974465;28;20980;-71
2021/10/08 00:27:45;;;;;;;4.77;3.97;;;;;;;;;;4973600;28;20480;-71
2021/10/08 00:30:11;;;;;;;10.70;4.67;;;;;;;;;;4974402;28;20426;-71
2021/10/08 00:32:37;;;;;;;5.43;4.50;;;;;;;;;;4974351;28;20423;-71
2021/10/08 00:35:03;;;;;;;5.97;4.90;;;;;;;;;;4974305;28;20920;-71
2021/10/08 00:37:30;;;;;;;4.53;4.00;;;;;;;;;;4974444;28;20427;-71
2021/10/08 00:42:59;;;;;;;4.60;4.20;;;;;;;;;;4973966;28;20412;-71
2021/10/08 00:45:25;;;;;;;5.20;4.73;;;;;;;;;;4974145;28;20928;-71
2021/10/08 00:47:58;;;;;;;5.93;5.43;;;;;;;;;;4974136;28;20419;-71
2021/10/08 00:50:24;;;;;;;5.17;4.77;;;;;;;;;;4974505;28;20549;-71
2021/10/08 00:58:39;;;;;;;5.60;5.10;;;;;;;;;;4973941;28;20417;-71
2021/10/08 01:01:07;;;;;;;6.77;4.93;;;;;;;;;;4974350;28;20853;-71
2021/10/08 01:03:33;;;;;;;6.33;5.30;;;;;;;;;;4972974;28;20913;-71
2021/10/08 01:05:59;;;;;;;4.60;4.20;;;;;;;;;;4974001;28;20470;-72
2021/10/08 01:08:25;;;;;;;5.80;4.47;;;;;;;;;;4976982;28;20497;-71
2021/10/08 01:10:51;;;;;;;5.57;5.00;;;;;;;;;;4977956;28;20775;-71
2021/10/08 01:13:17;;;;;;;5.00;4.47;;;;;;;;;;4977612;28;20418;-70
2021/10/08 01:15:44;;;;;;;10.70;5.30;;;;;;;;;;4977691;28;20450;-70
2021/10/08 01:18:10;;;;;;;5.60;5.07;;;;;;;;;;4976415;28;20451;-72
2021/10/08 01:20:36;;;;;;;6.07;5.47;;;;;;;;;;4977811;28;20904;-71
2021/10/08 01:23:02;;;;;;;6.00;5.50;;;;;;;;;;4977692;28;20423;-71
2021/10/08 01:25:30;;;;;;;6.23;4.90;;;;;;;;;;4977614;28;20414;-71
2021/10/08 01:27:56;;;;;;;5.37;4.87;;;;;;;;;;4977111;28;20426;-71
2021/10/08 01:30:23;;;;;;;5.83;5.17;;;;;;;;;;4977175;28;20415;-72
2021/10/08 01:32:49;;;;;;;5.73;5.13;;;;;;;;;;4977533;28;20505;-70
2021/10/08 01:35:16;;;;;;;5.93;5.30;;;;;;;;;;4977431;28;20501;-71
2021/10/08 01:37:42;;;;;;;5.33;4.90;;;;;;;;;;4977681;28;20414;-71
2021/10/08 01:43:12;;;;;;;5.43;4.70;;;;;;;;;;4977107;28;20472;-70
2021/10/08 01:45:38;;;;;;;5.60;5.10;;;;;;;;;;4977192;28;20912;-71
2021/10/08 01:48:04;;;;;;;7.17;6.20;;;;;;;;;;4977204;28;20466;-70
2021/10/08 01:50:30;;;;;;;6.40;5.70;;;;;;;;;;4977178;28;20409;-71
2021/10/08 01:52:58;;;;;;;6.50;5.87;;;;;;;;;;4977121;28;20430;-70
2021/10/08 01:58:27;;;;;;;6.50;5.33;;;;;;;;;;4976781;28;20503;-71
2021/10/08 02:00:54;;;;;;;7.03;5.40;;;;;;;;;;4977220;28;20441;-70
2021/10/08 02:03:20;;;;;;;8.13;5.70;;;;;;;;;;4976929;28;20484;-72
2021/10/08 02:05:46;;;;;;;6.07;5.37;;;;;;;;;;4977054;28;20479;-71
2021/10/08 02:08:12;;;;;;;6.63;5.33;;;;;;;;;;4976842;28;20936;-71
2021/10/08 02:13:41;;;;;;;5.77;5.20;;;;;;;;;;4976599;28;20476;-72
2021/10/08 02:16:08;;;;;;;5.57;5.00;;;;;;;;;;4976734;28;20821;-69
2021/10/08 02:18:34;;;;;;;5.63;5.13;;;;;;;;;;4975711;28;20417;-71
2021/10/08 02:21:00;;;;;;;10.93;5.80;;;;;;;;;;4976637;28;20955;-70
2021/10/08 02:23:26;;;;;;;7.80;5.90;;;;;;;;;;4976626;28;20504;-71
2021/10/08 02:25:52;;;;;;;6.70;6.10;;;;;;;;;;4976467;28;20952;-70
2021/10/08 02:28:18;;;;;;;6.13;5.50;;;;;;;;;;4975706;28;20414;-71
2021/10/08 02:30:44;;;;;;;6.40;5.80;;;;;;;;;;4975736;28;20426;-70
2021/10/08 02:33:10;;;;;;;6.93;5.93;;;;;;;;;;4976386;28;20415;-70
2021/10/08 02:35:36;;;;;;;6.90;6.20;;;;;;;;;;4976406;28;20422;-71
2021/10/08 02:38:02;;;;;;;6.27;5.70;;;;;;;;;;4976413;28;20409;-71
2021/10/08 02:43:31;;;;;;;6.77;6.17;;;;;;;;;;4975996;28;20848;-71
2021/10/08 02:45:57;;;;;;;6.73;6.13;;;;;;;;;;4976109;28;20461;-70
2021/10/08 02:48:23;;;;;;;7.30;6.20;;;;;;;;;;4976337;28;20437;-70
2021/10/08 02:50:49;;;;;;;8.07;5.53;;;;;;;;;;4976061;28;20429;-70
2021/10/08 02:53:16;;;;;;;9.07;6.17;;;;;;;;;;4975945;28;20529;-70
2021/10/08 02:58:46;;;;;;;9.47;6.67;;;;;;;;;;4975625;28;20928;-70
2021/10/08 03:01:12;;;;;;;7.17;6.50;;;;;;;;;;4975931;28;20422;-70
2021/10/08 03:03:38;;;;;;;6.90;6.07;;;;;;;;;;4975802;28;20906;-71
2021/10/08 03:06:04;;;;;;;6.87;6.17;;;;;;;;;;4975751;28;20492;-71
2021/10/08 03:08:29;;;;;;;7.33;6.63;;;;;;;;;;4975811;28;20414;-72
2021/10/08 03:13:59;;;;;;;8.00;7.20;;;;;;;;;;4975336;28;20517;-71
2021/10/08 03:16:25;;;;;;;7.70;6.60;;;;;;;;;;4975527;28;20494;-71
2021/10/08 03:18:51;;;;;;;7.13;6.43;;;;;;;;;;4975516;28;20429;-71
2021/10/08 03:21:17;;;;;;;7.50;6.63;;;;;;;;;;4975428;28;20401;-71
2021/10/08 03:23:43;;;;;;;7.00;6.30;;;;;;;;;;4975513;28;20766;-71
2021/10/08 03:26:09;;;;;;;6.80;6.20;;;;;;;;;;4975534;28;20542;-71
2021/10/08 03:28:35;;;;;;;7.70;6.37;;;;;;;;;;4975159;28;20440;-71
2021/10/08 03:31:01;;;;;;;7.97;7.27;;;;;;;;;;4975168;28;20405;-71
2021/10/08 03:33:27;;;;;;;7.83;6.30;;;;;;;;;;4975546;28;20801;-71
2021/10/08 03:35:53;;;;;;;9.00;7.40;;;;;;;;;;4975521;28;20491;-71
2021/10/08 03:38:20;;;;;;;9.90;6.97;;;;;;;;;;4975345;28;20424;-71
2021/10/08 03:43:54;;;;;;;8.10;7.27;;;;;;;;;;4974845;28;20507;-71
2021/10/08 03:46:20;;;;;;;6.63;5.97;;;;;;;;;;4974966;28;20463;-72
2021/10/08 03:51:15;;;;;;;11.80;6.97;;;;;;;;;;4975327;28;20472;-70
2021/10/08 03:53:41;;;;;;;7.20;6.50;;;;;;;;;;4975167;28;20419;-71
2021/10/08 03:59:11;;;;;;;9.17;6.93;;;;;;;;;;4974955;28;20971;-72
2021/10/08 04:01:37;;;;;;;8.40;7.60;;;;;;;;;;4974822;28;20864;-71
2021/10/08 04:04:04;;;;;;;8.23;7.43;;;;;;;;;;4974929;28;20752;-71
2021/10/08 04:06:31;;;;;;;9.73;8.73;;;;;;;;;;4974919;28;20480;-71
2021/10/08 04:08:57;;;;;;;8.93;8.03;;;;;;;;;;4974901;28;20417;-71
2021/10/08 04:11:23;;;;;;;9.37;7.23;;;;;;;;;;4974698;28;20521;-71
2021/10/08 04:13:49;;;;;;;12.77;7.73;;;;;;;;;;4974437;28;20807;-71
2021/10/08 04:16:15;;;;;;;7.90;7.20;;;;;;;;;;4973405;28;20488;-71
2021/10/08 04:18:41;;;;;;;8.23;7.43;;;;;;;;;;4974617;28;20426;-70
2021/10/08 04:21:07;;;;;;;7.87;7.03;;;;;;;;;;4974761;28;20860;-72
2021/10/08 04:23:33;;;;;;;11.00;8.50;;;;;;;;;;4974380;28;20421;-71
2021/10/08 04:29:03;;;;;;;9.20;7.83;;;;;;;;;;4974145;28;20468;-71
2021/10/08 04:31:29;;;;;;;9.03;8.20;;;;;;;;;;4973373;28;20425;-71
2021/10/08 04:33:55;;;;;;;8.73;7.93;;;;;;;;;;4973272;28;20504;-71
2021/10/08 04:36:21;;;;;;;9.57;8.60;;;;;;;;;;4973386;28;20425;-71
2021/10/08 04:38:47;;;;;;;10.20;8.27;;;;;;;;;;4973401;28;20418;-70
2021/10/08 04:44:16;;;;;;;10.17;7.77;;;;;;;;;;4973170;28;20443;-71
2021/10/08 04:46:42;;;;;;;12.20;8.00;;;;;;;;;;4972925;28;20480;-71
2021/10/08 04:49:08;;;;;;;11.30;9.60;;;;;;;;;;4974209;28;20452;-71
2021/10/08 04:51:34;;;;;;;9.70;8.80;;;;;;;;;;4974454;28;20419;-71
2021/10/08 04:54:00;;;;;;;9.43;8.43;;;;;;;;;;4974404;28;20454;-72
2021/10/08 04:59:30;;;;;;;9.10;8.10;;;;;;;;;;4974050;28;20460;-71
2021/10/08 05:01:56;;;;;;;10.00;7.83;;;;;;;;;;4974260;28;20413;-71
2021/10/08 05:04:22;;;;;;;12.77;9.43;;;;;;;;;;4974029;28;20443;-70
2021/10/08 05:06:48;;;;;;;12.90;9.20;;;;;;;;;;4973912;28;20496;-72
2021/10/08 05:09:14;;;;;;;8.90;8.00;;;;;;;;;;4974029;28;20427;-71
2021/10/08 05:14:43;;;;;;;9.17;8.20;;;;;;;;;;4972828;28;20472;-71
2021/10/08 05:17:09;;;;;;;8.90;8.10;;;;;;;;;;4973841;28;20419;-70
2021/10/08 05:19:35;;;;;;;13.03;8.57;;;;;;;;;;4974026;28;20419;-70
2021/10/08 05:22:01;;;;;;;13.17;10.20;;;;;;;;;;4973955;28;20725;-71
2021/10/08 05:24:27;;;;;;;9.77;8.73;;;;;;;;;;4973906;28;20763;-71
2021/10/08 05:26:53;;;;;;;11.43;9.10;;;;;;;;;;4973440;28;20472;-72
2021/10/08 05:29:19;;;;;;;10.50;9.53;;;;;;;;;;4973906;28;20416;-71
2021/10/08 05:31:45;;;;;;;10.43;8.90;;;;;;;;;;4973677;28;20955;-70
2021/10/08 05:34:12;;;;;;;9.83;8.43;;;;;;;;;;4973784;28;20418;-71
2021/10/08 05:36:38;;;;;;;10.20;9.20;;;;;;;;;;4973684;28;20433;-70
2021/10/08 05:39:04;;;;;;;10.97;9.60;;;;;;;;;;4974000;28;20437;-71
2021/10/08 05:44:34;;;;;;;10.13;8.70;;;;;;;;;;4973647;28;20956;-68
2021/10/08 05:47:00;;;;;;;10.57;9.47;;;;;;;;;;4973138;28;20475;-70
2021/10/08 05:49:26;;;;;;;10.10;9.00;;;;;;;;;;4973066;28;20421;-71
2021/10/08 05:51:52;;;;;;;12.27;9.30;;;;;;;;;;4973504;28;20425;-71
2021/10/08 05:54:18;;;;;;;12.77;9.10;;;;;;;;;;4974360;28;20498;-72
2021/10/08 05:59:48;;;;;;;9.40;8.50;;;;;;;;;;4976901;28;20488;-72
2021/10/08 06:02:14;;;;;;;12.63;8.60;;;;;;;;;;4976949;28;20425;-71
2021/10/08 06:04:40;;;;;;;10.63;9.20;;;;;;;;;;4976942;28;20444;-71
2021/10/08 06:07:07;;;;;;;10.50;8.60;;;;;;;;;;4976810;28;20472;-72
2021/10/08 06:09:34;;;;;;;16.13;9.93;;;;;;;;;;4977044;28;20563;-72
2021/10/08 06:15:04;;;;;;;9.90;8.87;;;;;;;;;;4976585;28;20409;-71
2021/10/08 06:17:30;;;;;;;11.43;9.27;;;;;;;;;;4976659;28;20418;-71
2021/10/08 06:19:56;;;;;;;9.97;8.97;;;;;;;;;;4976647;28;20471;-71
2021/10/08 06:22:22;;;;;;;12.40;9.40;;;;;;;;;;4976664;28;20872;-71
2021/10/08 06:24:48;;;;;;;11.07;9.83;;;;;;;;;;4976464;28;20421;-72
2021/10/08 06:30:18;;;;;;;11.93;10.83;;;;;;;;;;4976507;28;20416;-71
2021/10/08 06:32:44;;;;;;;12.50;9.50;;;;;;;;;;4976470;28;20409;-71
2021/10/08 06:35:10;;;;;;;11.53;9.50;;;;;;;;;;4976405;28;20916;-72
2021/10/08 06:37:36;;;;;;;11.83;10.40;;;;;;;;;;4976325;28;20414;-70
2021/10/08 06:40:02;;;;;;;10.97;9.87;;;;;;;;;;4976138;28;20532;-71
2021/10/08 06:42:28;;;;;;;11.73;9.50;;;;;;;;;;4975978;28;20453;-71
2021/10/08 06:44:55;;;;;;;12.50;11.20;;;;;;;;;;4976000;28;20430;-72
2021/10/08 06:47:21;;;;;;;10.80;9.57;;;;;;;;;;4976182;28;20473;-72
2021/10/08 06:49:47;;;;;;;12.10;9.40;;;;;;;;;;4976036;28;20766;-72
2021/10/08 06:52:13;;;;;;;11.30;10.10;;;;;;;;;;4976399;28;20422;-71
2021/10/08 06:54:39;;;;;;;11.80;10.60;;;;;;;;;;4976133;28;20842;-72
2021/10/08 07:00:09;;;;;;;10.77;9.67;;;;;;;;;;4976027;28;20421;-71
2021/10/08 07:02:45;;;;;;;10.30;8.80;;;;;;;;;;4975802;28;20446;-72
2021/10/08 07:05:11;;;;;;;13.93;10.00;;;;;;;;;;4975439;28;20422;-71
2021/10/08 07:07:37;;;;;;;12.37;9.90;;;;;;;;;;4975795;28;20480;-71
2021/10/08 07:10:03;;;;;;;15.13;10.53;;;;;;;;;;4975775;28;20415;-72
2021/10/08 07:15:33;;;;;;;11.07;10.07;;;;;;;;;;4975994;28;20776;-71
2021/10/08 07:18:00;;;;;;;9.40;8.60;;;;;;;;;;4975619;28;20411;-71
2021/10/08 07:20:27;;;;;;;11.20;10.13;;;;;;;;;;4975974;28;20447;-71
2021/10/08 07:22:54;;;;;;;10.40;9.37;;;;;;;;;;4975606;28;20410;-71
2021/10/08 07:25:21;;;;;;;8.97;8.17;;;;;;;;;;4975719;28;20422;-71
2021/10/08 07:27:48;;;;;;;9.60;8.67;;;;;;;;;;4975172;28;20478;-72
2021/10/08 07:30:14;;;;;;;9.30;8.40;;;;;;;;;;4975339;28;20407;-72
2021/10/08 07:32:41;;;;;;;10.17;9.10;;;;;;;;;;4975252;28;20442;-72
2021/10/08 07:35:07;;;;;;;8.33;7.60;;;;;;;;;;4975177;28;20474;-71
2021/10/08 07:37:34;;;;;;;8.93;8.03;;;;;;;;;;4975249;28;20434;-71
2021/10/08 07:40:00;;;;;;;10.03;8.90;;;;;;;;;;4975210;28;20403;-71
2021/10/08 07:45:29;;;;;;;14.63;8.77;;;;;;;;;;4974868;28;20421;-72
2021/10/08 07:47:55;;;;;;;9.27;8.20;;;;;;;;;;4973479;28;20569;-71
2021/10/08 07:50:21;;;;;;;9.40;8.47;;;;;;;;;;4974836;28;20575;-71
2021/10/08 07:52:47;;;;;;;12.07;8.80;;;;;;;;;;4974714;28;20425;-71
2021/10/08 07:55:13;;;;;;;9.27;8.03;;;;;;;;;;4974942;28;20481;-72
2021/10/08 08:00:43;;;;;;;11.60;8.57;;;;;;;;;;4974808;28;20841;-71
2021/10/08 08:03:09;;;;;;;9.43;8.57;;;;;;;;;;4974786;28;20398;-70
2021/10/08 08:05:35;;;;;;;9.20;8.27;;;;;;;;;;4974713;28;20869;-73
2021/10/08 08:08:03;;;;;;;11.03;7.90;;;;;;;;;;4974980;28;20863;-72
2021/10/08 08:10:28;;;;;;;8.00;7.20;;;;;;;;;;4974842;28;20418;-72
2021/10/08 08:15:57;;;;;;;10.43;7.87;;;;;;;;;;4974620;28;20564;-72
2021/10/08 08:18:23;;;;;;;9.57;8.27;;;;;;;;;;4974081;28;20415;-72
2021/10/08 08:20:50;;;;;;;11.30;7.23;;;;;;;;;;4974896;28;20450;-72
2021/10/08 08:23:16;;;;;;;7.50;6.90;;;;;;;;;;4973434;28;20437;-72
2021/10/08 08:25:42;;;;;;;9.03;7.80;;;;;;;;;;4974404;28;20878;-72
2021/10/08 08:28:08;;;;;;;8.67;7.97;;;;;;;;;;4974511;28;20449;-72
2021/10/08 08:30:38;;;;;;;8.93;8.03;;;;;;;;;;4974331;28;20423;-72
2021/10/08 08:33:04;;;;;;;8.50;7.07;;;;;;;;;;4974381;28;20492;-71
2021/10/08 08:35:30;;;;;;;9.07;7.53;;;;;;;;;;4974453;28;20513;-71
2021/10/08 08:37:56;;;;;;;9.97;7.20;;;;;;;;;;4974298;28;20421;-72
2021/10/08 08:40:22;;;;;;;8.37;7.60;;;;;;;;;;4974238;28;20439;-71
2021/10/08 08:45:51;;;;;;;8.57;7.87;;;;;;;;;;4974377;28;20438;-71
2021/10/08 08:48:17;;;;;;;8.07;7.27;;;;;;;;;;4974186;28;20419;-72
2021/10/08 08:50:44;;;;;;;8.40;7.63;;;;;;;;;;4974528;28;20415;-71
2021/10/08 08:53:11;;;;;;;10.50;7.50;;;;;;;;;;4974004;28;20430;-72
2021/10/08 08:55:37;;;;;;;11.70;7.50;;;;;;;;;;4973828;28;20622;-71
2021/10/08 09:01:07;;;;;;;8.00;7.30;;;;;;;;;;4974342;28;20441;-70
2021/10/08 09:03:33;;;;;;;10.17;7.50;;;;;;;;;;4974017;28;20505;-72
2021/10/08 09:05:59;;;;;;;8.17;6.63;;;;;;;;;;4972557;28;20824;-72
2021/10/08 09:08:32;;;;;;;9.03;7.83;;;;;;;;;;4973910;28;20534;-71
2021/10/08 09:10:59;;;;;;;8.97;8.20;;;;;;;;;;4973905;28;20876;-72
2021/10/08 09:13:27;;;;;;;10.60;8.70;;;;;;;;;;4973705;28;20501;-72
2021/10/08 09:16:00;;;;;;;9.57;8.67;;;;;;;;;;4973837;28;20415;-71
2021/10/08 09:18:27;;;;;;;9.57;8.77;;;;;;;;;;4973905;28;20971;-72
2021/10/08 09:21:01;;;;;;;10.20;8.00;;;;;;;;;;4974085;28;20855;-72
2021/10/08 09:23:34;;;;;;;9.20;8.10;;;;;;;;;;4973935;28;20423;-73
2021/10/08 09:32:07;;;;;;;9.60;8.70;;;;;;;;;;4977817;28;20416;-73
2021/10/08 09:34:33;;;;;;;10.03;8.20;;;;;;;;;;4977505;28;20981;-72
2021/10/08 09:37:03;;;;;;;8.87;7.90;;;;;;;;;;4977794;28;20421;-73
2021/10/08 09:39:33;;;;;;;8.60;7.80;;;;;;;;;;4977622;28;20517;-72
2021/10/08 09:42:04;;;;;;;11.53;8.57;;;;;;;;;;4977329;28;20877;-72
2021/10/08 09:44:30;;;;;;;9.63;8.63;;;;;;;;;;4977334;28;20437;-72
2021/10/08 09:47:09;;;;;;;13.67;9.20;;;;;;;;;;4977205;28;20470;-71
2021/10/08 09:49:35;;;;;;;9.63;7.87;;;;;;;;;;4977216;28;20430;-71
2021/10/08 09:52:18;;;;;;;9.37;8.40;;;;;;;;;;4976197;28;20927;-72
2021/10/08 09:55:04;;;;;;;9.00;8.10;;;;;;;;;;4975748;28;20505;-72
2021/10/08 09:57:50;;;;;;;10.27;8.03;;;;;;;;;;4977018;28;20431;-73
2021/10/08 10:00:35;;;;;;;9.47;8.53;;;;;;;;;;4976988;28;20430;-72
2021/10/08 10:03:02;;;;;;;8.20;7.50;;;;;;;;;;4975696;28;20940;-72
2021/10/08 10:05:28;;;;;;;9.23;8.20;;;;;;;;;;4976954;28;20510;-72
2021/10/08 10:07:55;;;;;;;9.37;8.40;;;;;;;;;;4975900;28;21083;-71
2021/10/08 10:10:22;;;;;;;9.40;8.53;;;;;;;;;;4976786;28;20805;-71
2021/10/08 10:12:49;;;;;;;9.97;8.93;;;;;;;;;;4976599;28;20415;-72
2021/10/08 10:15:15;;;;;;;11.03;8.80;;;;;;;;;;4976710;28;20453;-71
2021/10/08 10:17:42;;;;;;;9.33;8.20;;;;;;;;;;4976675;28;20485;-71
2021/10/08 10:20:11;;;;;;;8.97;8.07;;;;;;;;;;4976658;28;20506;-71
2021/10/08 10:22:38;;;;;;;10.60;8.30;;;;;;;;;;4976474;28;20504;-71
2021/10/08 10:25:04;;;;;;;12.10;7.27;;;;;;;;;;4976592;28;20415;-71
2021/10/08 10:27:30;;;;;;;9.07;8.20;;;;;;;;;;4976312;28;20474;-71
2021/10/08 10:29:56;;;;;;;10.43;9.33;;;;;;;;;;4976210;28;20407;-71
2021/10/08 10:32:23;;;;;;;8.07;7.27;;;;;;;;;;4976414;28;20419;-72
2021/10/08 10:34:49;;;;;;;11.07;8.50;;;;;;;;;;4976372;28;20410;-71
2021/10/08 10:37:35;;;;;;;8.83;8.00;;;;;;;;;;4976242;28;20473;-71
2021/10/08 10:40:16;;;;;;;9.07;7.60;;;;;;;;;;4975632;28;20422;-73
2021/10/08 10:42:42;;;;;;;9.53;8.40;;;;;;;;;;4976370;28;20793;-72
2021/10/08 10:45:14;;;;;;;11.23;9.10;;;;;;;;;;4976057;28;20418;-70
2021/10/08 10:47:41;;;;;;;8.00;7.30;;;;;;;;;;4976247;28;20529;-72
2021/10/08 10:50:20;;;;;;;9.37;8.33;;;;;;;;;;4976362;28;20537;-72
2021/10/08 10:52:50;;;;;;;9.33;7.40;;;;;;;;;;4976057;28;20418;-72
2021/10/08 10:55:16;;;;;;;9.80;8.87;;;;;;;;;;4975855;28;20574;-73
2021/10/08 10:57:42;;;;;;;10.57;7.73;;;;;;;;;;4975884;28;20418;-72
2021/10/08 11:00:29;;;;;;;9.20;8.30;;;;;;;;;;4976221;28;20411;-72
2021/10/08 11:03:00;;;;;;;14.20;8.13;;;;;;;;;;4975833;28;20414;-73
2021/10/08 11:05:27;;;;;;;8.83;7.93;;;;;;;;;;4975773;28;20419;-72
2021/10/08 11:08:12;;;;;;;9.70;8.70;;;;;;;;;;4976021;28;20478;-71
2021/10/08 11:10:44;;;;;;;9.83;8.27;;;;;;;;;;4975729;28;20406;-71
2021/10/08 11:13:22;;;;;;;8.53;7.63;;;;;;;;;;4975395;28;20411;-72
2021/10/08 11:15:52;;;;;;;17.40;8.20;;;;;;;;;;4975857;28;20832;-71
2021/10/08 11:18:34;;;;;;;9.33;8.43;;;;;;;;;;4975869;28;20418;-72
2021/10/08 11:21:00;;;;;;;13.43;9.20;;;;;;;;;;4975624;28;20762;-72
2021/10/08 11:23:26;;;;;;;10.27;9.17;;;;;;;;;;4975407;28;20423;-72
2021/10/08 11:25:55;;;;;;;8.97;8.10;;;;;;;;;;4975620;28;20409;-73
2021/10/08 11:28:50;;;;;;;10.33;8.63;;;;;;;;;;4975034;28;20426;-72
2021/10/08 11:31:18;;;;;;;10.03;8.70;;;;;;;;;;4974925;28;20430;-71
2021/10/08 11:33:47;;;;;;;9.17;8.27;;;;;;;;;;4975156;28;20802;-72
2021/10/08 11:36:16;;;;;;;10.30;8.37;;;;;;;;;;4975520;28;20509;-71
2021/10/08 11:38:42;;;;;;;9.83;8.30;;;;;;;;;;4975162;28;20415;-72
2021/10/08 11:41:16;;;;;;;8.37;7.20;;;;;;;;;;4975182;28;20564;-72
2021/10/08 11:43:43;;;;;;;9.77;8.37;;;;;;;;;;4974839;28;20506;-72
2021/10/08 11:49:15;;;;;;;11.40;8.50;;;;;;;;;;4975470;28;20418;-72
2021/10/08 11:51:41;;;;;;;9.43;8.13;;;;;;;;;;4974899;28;20747;-71
2021/10/08 11:54:07;;;;;;;10.77;9.77;;;;;;;;;;4974919;28;20465;-71
2021/10/08 11:56:33;;;;;;;11.30;9.23;;;;;;;;;;4974701;28;20459;-72
2021/10/08 11:58:59;;;;;;;17.97;8.87;;;;;;;;;;4974631;28;20857;-72
2021/10/08 12:01:26;;;;;;;12.90;8.27;;;;;;;;;;4974774;28;20407;-71
2021/10/08 12:03:53;;;;;;;10.63;9.60;;;;;;;;;;4974719;28;20430;-72
2021/10/08 12:06:26;;;;;;;10.47;8.23;;;;;;;;;;4973658;28;20474;-72
2021/10/08 12:08:53;;;;;;;11.57;8.93;;;;;;;;;;4974581;28;20422;-71
2021/10/08 12:11:20;;;;;;;12.33;9.00;;;;;;;;;;4974784;28;20411;-72
2021/10/08 12:13:53;;;;;;;12.07;8.47;;;;;;;;;;4974489;28;20481;-72
2021/10/08 12:16:23;;;;;;;11.17;9.07;;;;;;;;;;4974955;28;20824;-72
2021/10/08 12:18:54;;;;;;;9.70;7.97;;;;;;;;;;4974678;28;20438;-72
2021/10/08 12:21:21;;;;;;;12.47;10.00;;;;;;;;;;4974742;28;20917;-72
2021/10/08 12:23:54;;;;;;;13.13;9.03;;;;;;;;;;4974842;28;20399;-72
2021/10/08 12:26:21;;;;;;;9.43;8.47;;;;;;;;;;4973213;28;20469;-71
2021/10/08 12:28:51;;;;;;;11.03;8.53;;;;;;;;;;4974351;28;20434;-72
2021/10/08 12:31:17;;;;;;;9.60;8.60;;;;;;;;;;4974456;28;20505;-71
2021/10/08 12:33:45;;;;;;;11.33;8.37;;;;;;;;;;4974419;28;20422;-73
2021/10/08 12:36:11;;;;;;;9.27;8.37;;;;;;;;;;4974756;28;20490;-73
2021/10/08 12:39:07;;;;;;;12.00;9.00;;;;;;;;;;4974171;28;20886;-73
2021/10/08 12:41:40;;;;;;;10.10;8.83;;;;;;;;;;4973783;28;20426;-72
2021/10/08 12:44:07;;;;;;;9.90;8.90;;;;;;;;;;4974005;28;20473;-72
2021/10/08 12:46:36;;;;;;;16.20;8.20;;;;;;;;;;4974470;28;20973;-72
2021/10/08 12:49:02;;;;;;;9.37;8.47;;;;;;;;;;4974527;28;20407;-72
2021/10/08 12:51:28;;;;;;;14.03;9.40;;;;;;;;;;4972835;28;20438;-72
2021/10/08 12:54:13;;;;;;;9.83;8.33;;;;;;;;;;4974404;28;20458;-71
2021/10/08 12:56:39;;;;;;;11.97;8.50;;;;;;;;;;4974377;28;20845;-71
2021/10/08 12:59:05;;;;;;;11.07;10.00;;;;;;;;;;4973891;28;20423;-72
2021/10/08 13:01:31;;;;;;;10.10;8.87;;;;;;;;;;4974368;28;20868;-71
2021/10/08 13:03:58;;;;;;;9.77;8.87;;;;;;;;;;4976611;28;20450;-72
2021/10/08 13:06:24;;;;;;;10.37;8.27;;;;;;;;;;4976989;28;21002;-72
2021/10/08 13:09:13;;;;;;;10.30;8.30;;;;;;;;;;4977840;28;20988;-72
2021/10/08 13:11:40;;;;;;;8.10;7.30;;;;;;;;;;4977791;28;20411;-72
2021/10/08 13:14:16;;;;;;;9.83;8.57;;;;;;;;;;4977488;28;20547;-71
2021/10/08 13:16:42;;;;;;;9.80;8.00;;;;;;;;;;4978005;28;20818;-71
2021/10/08 13:19:08;;;;;;;9.63;8.63;;;;;;;;;;4977757;28;20469;-72
2021/10/08 13:21:34;;;;;;;10.07;9.17;;;;;;;;;;4977620;28;20916;-72
2021/10/08 13:24:00;;;;;;;9.37;7.63;;;;;;;;;;4977819;28;20415;-72
2021/10/08 13:26:26;;;;;;;8.13;7.33;;;;;;;;;;4977485;28;20861;-71
2021/10/08 13:28:52;;;;;;;8.90;8.00;;;;;;;;;;4977471;28;20518;-72
2021/10/08 13:31:20;;;;;;;9.33;7.67;;;;;;;;;;4977711;28;20428;-71
2021/10/08 13:33:46;;;;;;;9.10;8.10;;;;;;;;;;4977561;28;20470;-72
2021/10/08 13:36:12;;;;;;;11.27;9.70;;;;;;;;;;4977776;28;20407;-72
2021/10/08 13:38:38;;;;;;;9.97;8.33;;;;;;;;;;4977414;28;20419;-73
2021/10/08 13:41:05;;;;;;;11.53;8.93;;;;;;;;;;4977635;28;20425;-72
2021/10/08 13:43:32;;;;;;;9.70;8.70;;;;;;;;;;4977138;28;20446;-71
2021/10/08 13:45:58;;;;;;;8.83;7.93;;;;;;;;;;4977456;28;20421;-72
2021/10/08 13:48:24;;;;;;;8.60;7.77;;;;;;;;;;4977350;28;20737;-72
2021/10/08 13:50:50;;;;;;;8.97;8.07;;;;;;;;;;4977463;28;20415;-72
2021/10/08 13:53:16;;;;;;;9.20;8.20;;;;;;;;;;4977153;28;20433;-73
2021/10/08 13:55:43;;;;;;;9.60;8.60;;;;;;;;;;4976994;28;20565;-72
2021/10/08 13:58:09;;;;;;;9.73;8.80;;;;;;;;;;4976862;28;20886;-71
2021/10/08 14:00:37;;;;;;;9.47;8.57;;;;;;;;;;4977003;28;20470;-71
2021/10/08 14:10:46;;;;;;;9.00;8.00;;;;;;;;;;4975817;28;20418;-71
2021/10/08 14:13:12;;;;;;;9.97;8.97;;;;;;;;;;4976585;28;20557;-72
2021/10/08 14:15:38;;;;;;;8.87;8.00;;;;;;;;;;4975472;28;20534;-72
2021/10/08 14:18:04;;;;;;;10.50;8.03;;;;;;;;;;4976629;28;20486;-71
2021/10/08 14:20:30;;;;;;;11.20;9.40;;;;;;;;;;4976688;28;20419;-73
2021/10/08 14:22:56;;;;;;;9.33;8.43;;;;;;;;;;4975255;28;20439;-71
2021/10/08 14:25:23;;;;;;;9.87;8.87;;;;;;;;;;4976616;28;20481;-72
2021/10/08 14:27:49;;;;;;;8.70;7.90;;;;;;;;;;4976353;28;20470;-72
2021/10/08 14:30:16;;;;;;;9.17;7.47;;;;;;;;;;4976757;28;20411;-73
2021/10/08 14:32:42;;;;;;;9.20;8.27;;;;;;;;;;4976696;28;20759;-73
2021/10/08 14:35:09;;;;;;;9.77;8.70;;;;;;;;;;4976211;28;20472;-71
2021/10/08 14:37:35;;;;;;;8.87;7.97;;;;;;;;;;4976338;28;20414;-71
2021/10/08 14:40:02;;;;;;;8.90;8.00;;;;;;;;;;4976344;28;20429;-71
2021/10/08 14:42:28;;;;;;;9.03;8.20;;;;;;;;;;4976091;28;20558;-71
2021/10/08 14:47:57;;;;;;;8.37;7.60;;;;;;;;;;4976361;28;20976;-71
2021/10/08 14:50:23;;;;;;;9.57;8.77;;;;;;;;;;4976142;28;20407;-71
2021/10/08 14:52:49;;;;;;;9.10;8.10;;;;;;;;;;4976065;28;20426;-71
2021/10/08 15:03:26;;;;;;;10.40;7.10;;;;;;;;;;4976104;28;20418;-71
2021/10/08 15:05:52;;;;;;;9.70;7.23;;;;;;;;;;4975868;28;20426;-72
2021/10/08 15:08:18;;;;;;;8.97;8.17;;;;;;;;;;4975675;28;21060;-71
2021/10/08 15:10:45;;;;;;;7.40;6.70;;;;;;;;;;4975796;28;20422;-71
2021/10/08 15:13:11;;;;;;;8.73;7.20;;;;;;;;;;4975823;28;20805;-72
2021/10/08 15:15:37;;;;;;;8.37;7.57;;;;;;;;;;4975796;28;20438;-72
2021/10/08 15:18:03;;;;;;;9.87;8.47;;;;;;;;;;4975641;28;20417;-70
2021/10/08 15:20:29;;;;;;;10.10;7.97;;;;;;;;;;4974231;28;20435;-71
2021/10/08 15:22:55;;;;;;;9.20;7.77;;;;;;;;;;4975180;28;20928;-72
2021/10/08 15:25:21;;;;;;;8.50;7.60;;;;;;;;;;4975167;28;20426;-72
2021/10/08 15:27:48;;;;;;;8.60;7.80;;;;;;;;;;4974793;28;20466;-71
2021/10/08 15:33:18;;;;;;;8.60;7.90;;;;;;;;;;4975590;28;20418;-72
2021/10/08 15:35:44;;;;;;;8.30;7.50;;;;;;;;;;4975609;28;20958;-72
2021/10/08 15:38:11;;;;;;;10.30;7.60;;;;;;;;;;4975347;28;20403;-72
2021/10/08 15:40:37;;;;;;;9.40;8.60;;;;;;;;;;4974178;28;20442;-72
2021/10/08 15:43:03;;;;;;;8.70;7.80;;;;;;;;;;4973616;28;20829;-73
2021/10/08 15:48:33;;;;;;;8.77;7.87;;;;;;;;;;4975269;28;20794;-72
2021/10/08 15:50:59;;;;;;;9.03;7.80;;;;;;;;;;4975298;28;20430;-72
2021/10/08 15:53:25;;;;;;;9.37;8.47;;;;;;;;;;4975092;28;20446;-73
2021/10/08 15:55:51;;;;;;;8.83;7.93;;;;;;;;;;4974949;28;20478;-72
2021/10/08 15:58:22;;;;;;;9.57;8.67;;;;;;;;;;4974768;28;20930;-72
2021/10/08 16:00:48;;;;;;;10.87;8.50;;;;;;;;;;4974941;28;20426;-71
2021/10/08 16:03:14;;;;;;;10.97;9.30;;;;;;;;;;4975416;28;20481;-71
2021/10/08 16:05:40;;;;;;;11.20;9.17;;;;;;;;;;4974888;28;20485;-72
2021/10/08 16:08:06;;;;;;;10.60;9.50;;;;;;;;;;4974654;28;20463;-70
2021/10/08 16:10:36;;;;;;;11.30;9.77;;;;;;;;;;4975052;28;20811;-72
2021/10/08 16:13:03;;;;;;;10.80;9.70;;;;;;;;;;4974581;28;20441;-73
2021/10/08 16:18:47;;;;;;;11.13;9.43;;;;;;;;;;4974771;28;20461;-72
2021/10/08 16:21:13;;;;;;;8.70;7.90;;;;;;;;;;4974593;28;20490;-72
2021/10/08 16:23:39;;;;;;;10.80;9.03;;;;;;;;;;4973294;28;20925;-72
2021/10/08 16:26:05;;;;;;;12.07;10.27;;;;;;;;;;4974641;28;20414;-72
2021/10/08 16:28:31;;;;;;;11.50;9.20;;;;;;;;;;4974287;28;20423;-72
2021/10/08 16:30:58;;;;;;;14.80;8.93;;;;;;;;;;4974811;28;20425;-72
2021/10/08 16:33:24;;;;;;;10.70;9.60;;;;;;;;;;4974515;28;20465;-72
2021/10/08 16:35:52;;;;;;;10.43;9.40;;;;;;;;;;4974574;28;20770;-72
2021/10/08 16:38:19;;;;;;;13.07;10.27;;;;;;;;;;4973717;28;20493;-72
2021/10/08 16:40:45;;;;;;;13.37;9.67;;;;;;;;;;4973632;28;20852;-73